createdAt,value
2016-11-26T00:00:39.488Z,0
2016-11-26T00:01:49.087Z,0
2016-11-26T00:02:58.447Z,0
2016-11-26T00:04:08.098Z,0
2016-11-26T00:05:17.432Z,0
2016-11-26T00:06:26.750Z,0
2016-11-26T00:07:35.433Z,0
2016-11-26T00:08:44.574Z,0
2016-11-26T00:09:53.564Z,0
2016-11-26T00:11:02.865Z,0
2016-11-26T00:12:12.503Z,0
2016-11-26T00:13:21.230Z,0
2016-11-26T00:14:30.929Z,0
2016-11-26T00:15:40.933Z,0
2016-11-26T00:16:49.980Z,0
2016-11-26T00:17:59.643Z,0
2016-11-26T00:19:09.559Z,0
2016-11-26T00:20:18.328Z,0
2016-11-26T00:21:27.128Z,0
2016-11-26T00:22:36.178Z,0
2016-11-26T00:23:45.817Z,0
2016-11-26T00:24:55.154Z,0
2016-11-26T00:26:04.253Z,0
2016-11-26T00:27:13.182Z,0
2016-11-26T00:28:21.895Z,0
2016-11-26T00:29:31.199Z,0
2016-11-26T00:30:40.315Z,0
2016-11-26T00:31:49.645Z,0
2016-11-26T00:32:59.004Z,0
2016-11-26T00:34:08.378Z,0
2016-11-26T00:35:17.368Z,0
2016-11-26T00:36:26.356Z,0
2016-11-26T00:37:35.079Z,0
2016-11-26T00:38:44.707Z,0
2016-11-26T00:39:53.746Z,0
2016-11-26T00:41:02.721Z,0
2016-11-26T00:42:11.740Z,0
2016-11-26T00:43:21.115Z,0
2016-11-26T00:44:30.124Z,0
2016-11-26T00:45:39.430Z,0
2016-11-26T00:46:48.125Z,0
2016-11-26T00:47:57.139Z,0
2016-11-26T00:49:05.855Z,0
2016-11-26T00:50:14.560Z,0
2016-11-26T00:51:23.859Z,0
2016-11-26T00:52:33.155Z,0
2016-11-26T00:53:42.166Z,0
2016-11-26T00:54:51.159Z,0
2016-11-26T00:56:00.591Z,0
2016-11-26T00:57:09.360Z,0
2016-11-26T00:58:18.663Z,0
2016-11-26T00:59:27.347Z,0
2016-11-26T01:00:36.036Z,0
2016-11-26T01:01:44.738Z,0
2016-11-26T01:02:53.742Z,0
2016-11-26T01:04:03.071Z,0
2016-11-26T01:05:11.758Z,0
2016-11-26T01:06:21.074Z,0
2016-11-26T01:07:29.767Z,0
2016-11-26T01:08:38.763Z,0
2016-11-26T01:09:47.523Z,0
2016-11-26T01:10:56.556Z,0
2016-11-26T01:12:05.575Z,0
2016-11-26T01:13:14.917Z,0
2016-11-26T01:14:24.537Z,0
2016-11-26T01:15:33.217Z,0
2016-11-26T01:16:42.204Z,0
2016-11-26T01:17:51.217Z,0
2016-11-26T01:18:59.970Z,0
2016-11-26T01:20:08.967Z,0
2016-11-26T01:21:18.278Z,0
2016-11-26T01:22:27.910Z,0
2016-11-26T01:23:37.843Z,0
2016-11-26T01:24:48.254Z,0
2016-11-26T01:25:57.558Z,0
2016-11-26T01:27:06.580Z,0
2016-11-26T01:28:15.619Z,0
2016-11-26T01:29:24.617Z,0
2016-11-26T01:30:33.607Z,0
2016-11-26T01:31:42.635Z,0
2016-11-26T01:32:51.663Z,0
2016-11-26T01:34:00.996Z,0
2016-11-26T01:35:09.753Z,0
2016-11-26T01:36:18.434Z,0
2016-11-26T01:37:27.452Z,0
2016-11-26T01:38:36.755Z,0
2016-11-26T01:39:46.066Z,0
2016-11-26T01:40:55.077Z,0
2016-11-26T01:42:04.119Z,0
2016-11-26T01:43:13.135Z,0
2016-11-26T01:44:22.454Z,0
2016-11-26T01:45:31.457Z,0
2016-11-26T01:46:40.456Z,0
2016-11-26T01:47:49.467Z,0
2016-11-26T01:48:58.473Z,0
2016-11-26T01:50:07.492Z,0
2016-11-26T01:51:16.216Z,0
2016-11-26T01:52:24.930Z,0
2016-11-26T01:53:33.726Z,0
2016-11-26T01:54:42.429Z,0
2016-11-26T01:55:51.433Z,0
2016-11-26T01:57:00.179Z,0
2016-11-26T01:58:09.515Z,0
2016-11-26T01:59:18.695Z,0
2016-11-26T02:00:27.384Z,0
2016-11-26T02:01:36.384Z,0
2016-11-26T02:02:45.395Z,0
2016-11-26T02:03:54.106Z,0
2016-11-26T02:05:03.110Z,0
2016-11-26T02:06:11.810Z,0
2016-11-26T02:07:20.820Z,0
2016-11-26T02:08:29.811Z,0
2016-11-26T02:09:38.859Z,0
2016-11-26T02:10:48.196Z,0
2016-11-26T02:11:57.230Z,0
2016-11-26T02:13:06.558Z,0
2016-11-26T02:14:15.643Z,0
2016-11-26T02:15:24.964Z,0
2016-11-26T02:16:34.287Z,0
2016-11-26T02:17:43.583Z,0
2016-11-26T02:18:53.187Z,0
2016-11-26T02:20:02.827Z,0
2016-11-26T02:21:12.126Z,0
2016-11-26T02:22:21.127Z,0
2016-11-26T02:23:30.149Z,0
2016-11-26T02:24:38.863Z,0
2016-11-26T02:25:47.565Z,0
2016-11-26T02:26:56.556Z,0
2016-11-26T02:28:06.153Z,0
2016-11-26T02:29:15.787Z,0
2016-11-26T02:30:24.782Z,0
2016-11-26T02:31:33.778Z,0
2016-11-26T02:32:42.801Z,0
2016-11-26T02:33:51.794Z,0
2016-11-26T02:35:00.788Z,0
2016-11-26T02:36:09.794Z,0
2016-11-26T02:37:18.508Z,0
2016-11-26T02:38:27.840Z,0
2016-11-26T02:39:36.923Z,0
2016-11-26T02:40:46.345Z,0
2016-11-26T02:41:55.024Z,0
2016-11-26T02:43:04.027Z,0
2016-11-26T02:44:13.330Z,0
2016-11-26T02:45:22.311Z,0
2016-11-26T02:46:31.645Z,0
2016-11-26T02:47:40.671Z,0
2016-11-26T02:48:49.715Z,0
2016-11-26T02:49:58.412Z,0
2016-11-26T02:51:07.098Z,0
2016-11-26T02:52:16.142Z,0
2016-11-26T02:53:25.479Z,0
2016-11-26T02:54:35.100Z,0
2016-11-26T02:55:44.450Z,0
2016-11-26T02:56:53.914Z,0
2016-11-26T02:58:03.840Z,0
2016-11-26T02:59:12.895Z,0
2016-11-26T03:00:22.514Z,0
2016-11-26T03:01:31.208Z,0
2016-11-26T03:02:39.899Z,0
2016-11-26T03:03:48.906Z,0
2016-11-26T03:04:57.901Z,0
2016-11-26T03:06:07.609Z,0
2016-11-26T03:07:16.937Z,0
2016-11-26T03:08:25.952Z,0
2016-11-26T03:09:35.377Z,0
2016-11-26T03:10:44.084Z,0
2016-11-26T03:11:53.379Z,0
2016-11-26T03:13:02.679Z,0
2016-11-26T03:14:11.783Z,0
2016-11-26T03:15:21.396Z,0
2016-11-26T03:16:30.714Z,0
2016-11-26T03:17:39.739Z,0
2016-11-26T03:18:49.354Z,0
2016-11-26T03:19:58.672Z,0
2016-11-26T03:21:08.020Z,0
2016-11-26T03:22:17.035Z,0
2016-11-26T03:23:26.019Z,0
2016-11-26T03:24:35.030Z,0
2016-11-26T03:25:44.058Z,0
2016-11-26T03:26:53.362Z,0
2016-11-26T03:28:02.989Z,0
2016-11-26T03:29:11.674Z,0
2016-11-26T03:30:20.975Z,0
2016-11-26T03:31:30.273Z,0
2016-11-26T03:32:39.568Z,0
2016-11-26T03:33:48.903Z,0
2016-11-26T03:34:58.240Z,0
2016-11-26T03:36:07.547Z,0
2016-11-26T03:37:16.705Z,0
2016-11-26T03:38:25.693Z,0
2016-11-26T03:39:34.722Z,0
2016-11-26T03:40:44.057Z,0
2016-11-26T03:41:53.360Z,0
2016-11-26T03:43:02.191Z,0
2016-11-26T03:44:10.884Z,0
2016-11-26T03:45:19.593Z,0
2016-11-26T03:46:28.286Z,0
2016-11-26T03:47:37.041Z,0
2016-11-26T03:48:46.638Z,0
2016-11-26T03:49:55.350Z,0
2016-11-26T03:51:04.371Z,0
2016-11-26T03:52:13.385Z,0
2016-11-26T03:53:22.079Z,0
2016-11-26T03:54:31.229Z,0
2016-11-26T03:55:40.241Z,0
2016-11-26T03:56:49.243Z,0
2016-11-26T03:57:58.881Z,0
2016-11-26T03:59:07.900Z,0
2016-11-26T04:00:17.043Z,0
2016-11-26T04:01:25.737Z,0
2016-11-26T04:02:35.041Z,0
2016-11-26T04:03:44.044Z,0
2016-11-26T04:04:53.359Z,0
2016-11-26T04:06:02.064Z,0
2016-11-26T04:07:11.083Z,0
2016-11-26T04:08:20.126Z,0
2016-11-26T04:09:29.745Z,0
2016-11-26T04:10:38.430Z,0
2016-11-26T04:11:47.284Z,0
2016-11-26T04:12:56.038Z,0
2016-11-26T04:14:05.092Z,0
2016-11-26T04:15:14.110Z,0
2016-11-26T04:16:23.484Z,0
2016-11-26T04:17:32.578Z,0
2016-11-26T04:18:41.578Z,0
2016-11-26T04:19:50.328Z,0
2016-11-26T04:20:59.073Z,0
2016-11-26T04:22:07.758Z,0
2016-11-26T04:23:17.396Z,0
2016-11-26T04:24:27.029Z,0
2016-11-26T04:25:36.111Z,0
2016-11-26T04:26:45.106Z,0
2016-11-26T04:27:54.110Z,0
2016-11-26T04:29:03.099Z,0
2016-11-26T04:30:12.712Z,0
2016-11-26T04:31:21.713Z,0
2016-11-26T04:32:30.408Z,0
2016-11-26T04:33:40.025Z,0
2016-11-26T04:34:49.326Z,0
2016-11-26T04:35:58.056Z,0
2016-11-26T04:37:07.071Z,0
2016-11-26T04:38:16.666Z,0
2016-11-26T04:39:25.974Z,0
2016-11-26T04:40:35.599Z,0
2016-11-26T04:41:44.620Z,0
2016-11-26T04:42:53.365Z,0
2016-11-26T04:44:02.681Z,0
2016-11-26T04:45:11.981Z,0
2016-11-26T04:46:21.305Z,0
2016-11-26T04:47:30.313Z,0
2016-11-26T04:48:39.050Z,0
2016-11-26T04:49:48.361Z,0
2016-11-26T04:50:57.073Z,0
2016-11-26T04:52:06.394Z,0
2016-11-26T04:53:15.722Z,0
2016-11-26T04:54:24.399Z,0
2016-11-26T04:55:33.380Z,0
2016-11-26T04:56:42.714Z,0
2016-11-26T04:57:52.073Z,0
2016-11-26T04:59:01.374Z,0
2016-11-26T05:00:10.074Z,0
2016-11-26T05:01:19.083Z,0
2016-11-26T05:02:27.834Z,0
2016-11-26T05:03:36.533Z,0
2016-11-26T05:04:46.180Z,0
2016-11-26T05:05:55.183Z,0
2016-11-26T05:07:04.203Z,0
2016-11-26T05:08:13.842Z,0
2016-11-26T05:09:22.867Z,0
2016-11-26T05:10:31.574Z,0
2016-11-26T05:11:40.260Z,0
2016-11-26T05:12:49.255Z,0
2016-11-26T05:13:58.565Z,0
2016-11-26T05:15:07.555Z,0
2016-11-26T05:16:16.879Z,0
2016-11-26T05:17:26.208Z,0
2016-11-26T05:18:35.524Z,0
2016-11-26T05:19:44.514Z,0
2016-11-26T05:20:53.570Z,0
2016-11-26T05:22:02.870Z,0
2016-11-26T05:23:12.004Z,0
2016-11-26T05:24:21.312Z,0
2016-11-26T05:25:30.319Z,0
2016-11-26T05:26:39.083Z,0
2016-11-26T05:27:49.077Z,0
2016-11-26T05:28:58.072Z,0
2016-11-26T05:30:07.371Z,0
2016-11-26T05:31:16.670Z,0
2016-11-26T05:32:25.691Z,0
2016-11-26T05:33:34.985Z,0
2016-11-26T05:34:44.335Z,0
2016-11-26T05:35:53.357Z,0
2016-11-26T05:37:02.679Z,0
2016-11-26T05:38:11.997Z,0
2016-11-26T05:39:21.621Z,0
2016-11-26T05:40:30.695Z,0
2016-11-26T05:41:39.759Z,0
2016-11-26T05:42:48.764Z,0
2016-11-26T05:43:57.801Z,0
2016-11-26T05:45:06.810Z,0
2016-11-26T05:46:15.797Z,0
2016-11-26T05:47:25.157Z,0
2016-11-26T05:48:34.193Z,0
2016-11-26T05:49:43.814Z,0
2016-11-26T05:50:52.591Z,0
2016-11-26T05:52:01.362Z,0
2016-11-26T05:53:10.129Z,0
2016-11-26T05:54:19.148Z,0
2016-11-26T05:55:28.607Z,0
2016-11-26T05:56:37.610Z,0
2016-11-26T05:57:46.322Z,0
2016-11-26T05:58:55.662Z,0
2016-11-26T06:00:04.371Z,0
2016-11-26T06:01:13.383Z,0
2016-11-26T06:02:22.429Z,0
2016-11-26T06:03:31.424Z,0
2016-11-26T06:04:40.755Z,0
2016-11-26T06:05:50.410Z,0
2016-11-26T06:06:59.758Z,0
2016-11-26T06:08:08.754Z,0
2016-11-26T06:09:17.439Z,0
2016-11-26T06:10:26.804Z,0
2016-11-26T06:11:35.800Z,0
2016-11-26T06:12:44.822Z,0
2016-11-26T06:13:53.863Z,0
2016-11-26T06:15:03.161Z,0
2016-11-26T06:16:11.881Z,0
2016-11-26T06:17:20.657Z,0
2016-11-26T06:18:29.981Z,0
2016-11-26T06:19:38.998Z,0
2016-11-26T06:20:48.133Z,0
2016-11-26T06:21:57.167Z,0
2016-11-26T06:23:06.496Z,0
2016-11-26T06:24:15.524Z,0
2016-11-26T06:25:24.866Z,0
2016-11-26T06:26:34.204Z,0
2016-11-26T06:27:43.207Z,0
2016-11-26T06:28:52.506Z,0
2016-11-26T06:30:02.128Z,0
2016-11-26T06:31:11.170Z,0
2016-11-26T06:32:20.483Z,0
2016-11-26T06:33:29.527Z,0
2016-11-26T06:34:38.302Z,0
2016-11-26T06:35:47.080Z,0
2016-11-26T06:36:56.130Z,0
2016-11-26T06:38:05.152Z,0
2016-11-26T06:39:14.176Z,0
2016-11-26T06:40:22.882Z,0
2016-11-26T06:41:32.214Z,0
2016-11-26T06:42:41.219Z,0
2016-11-26T06:43:49.912Z,0
2016-11-26T06:44:58.631Z,0
2016-11-26T06:46:07.950Z,0
2016-11-26T06:47:17.428Z,4
2016-11-26T06:48:26.421Z,4
2016-11-26T06:49:35.427Z,0
2016-11-26T06:50:44.448Z,0
2016-11-26T06:51:53.437Z,4
2016-11-26T06:53:02.419Z,4
2016-11-26T06:54:12.024Z,4
2016-11-26T06:55:20.749Z,8
2016-11-26T06:56:29.752Z,4
2016-11-26T06:57:38.482Z,4
2016-11-26T06:58:47.799Z,8
2016-11-26T06:59:56.787Z,8
2016-11-26T07:01:06.144Z,12
2016-11-26T07:02:15.474Z,12
2016-11-26T07:03:24.459Z,12
2016-11-26T07:04:34.403Z,12
2016-11-26T07:05:43.394Z,16
2016-11-26T07:06:52.142Z,20
2016-11-26T07:08:01.459Z,20
2016-11-26T07:09:10.200Z,24
2016-11-26T07:10:19.096Z,24
2016-11-26T07:11:27.812Z,24
2016-11-26T07:12:37.107Z,28
2016-11-26T07:13:45.828Z,28
2016-11-26T07:14:54.518Z,28
2016-11-26T07:16:03.220Z,32
2016-11-26T07:17:12.515Z,36
2016-11-26T07:18:21.258Z,36
2016-11-26T07:19:30.930Z,36
2016-11-26T07:20:40.561Z,40
2016-11-26T07:21:49.901Z,44
2016-11-26T07:22:58.621Z,48
2016-11-26T07:24:07.628Z,48
2016-11-26T07:25:17.052Z,52
2016-11-26T07:26:25.757Z,48
2016-11-26T07:27:35.175Z,52
2016-11-26T07:28:44.163Z,52
2016-11-26T07:29:53.158Z,56
2016-11-26T07:31:02.237Z,60
2016-11-26T07:32:11.543Z,64
2016-11-26T07:33:20.557Z,64
2016-11-26T07:34:29.320Z,68
2016-11-26T07:35:38.029Z,72
2016-11-26T07:36:47.030Z,68
2016-11-26T07:37:56.721Z,72
2016-11-26T07:39:05.743Z,80
2016-11-26T07:40:14.771Z,80
2016-11-26T07:41:23.792Z,84
2016-11-26T07:42:33.107Z,88
2016-11-26T07:43:41.814Z,88
2016-11-26T07:44:50.552Z,92
2016-11-26T07:45:59.861Z,100
2016-11-26T07:47:09.180Z,108
2016-11-26T07:48:17.939Z,112
2016-11-26T07:49:27.360Z,120
2016-11-26T07:50:36.570Z,124
2016-11-26T07:51:45.948Z,132
2016-11-26T07:52:54.953Z,136
2016-11-26T07:54:03.948Z,136
2016-11-26T07:55:12.946Z,132
2016-11-26T07:56:22.544Z,132
2016-11-26T07:57:31.605Z,136
2016-11-26T07:58:40.945Z,140
2016-11-26T07:59:50.331Z,148
2016-11-26T08:00:59.103Z,160
2016-11-26T08:02:08.839Z,168
2016-11-26T08:03:18.406Z,172
2016-11-26T08:04:27.109Z,172
2016-11-26T08:05:36.594Z,180
2016-11-26T08:06:45.370Z,180
2016-11-26T08:07:55.303Z,180
2016-11-26T08:09:04.360Z,188
2016-11-26T08:10:13.378Z,196
2016-11-26T08:11:22.361Z,208
2016-11-26T08:12:32.289Z,208
2016-11-26T08:13:41.302Z,216
2016-11-26T08:14:50.026Z,228
2016-11-26T08:15:58.782Z,236
2016-11-26T08:17:07.777Z,244
2016-11-26T08:18:16.478Z,244
2016-11-26T08:19:25.495Z,224
2016-11-26T08:20:34.515Z,220
2016-11-26T08:21:43.211Z,252
2016-11-26T08:22:52.574Z,272
2016-11-26T08:24:01.874Z,296
2016-11-26T08:25:10.869Z,308
2016-11-26T08:26:19.851Z,304
2016-11-26T08:27:29.165Z,304
2016-11-26T08:28:38.159Z,304
2016-11-26T08:29:46.879Z,308
2016-11-26T08:30:55.720Z,312
2016-11-26T08:32:05.029Z,312
2016-11-26T08:33:13.725Z,308
2016-11-26T08:34:22.709Z,296
2016-11-26T08:35:31.407Z,292
2016-11-26T08:36:40.095Z,280
2016-11-26T08:37:48.785Z,280
2016-11-26T08:38:57.468Z,280
2016-11-26T08:40:07.090Z,284
2016-11-26T08:41:16.091Z,284
2016-11-26T08:42:25.994Z,288
2016-11-26T08:43:35.288Z,288
2016-11-26T08:44:44.594Z,292
2016-11-26T08:45:53.587Z,296
2016-11-26T08:47:02.335Z,296
2016-11-26T08:48:11.485Z,296
2016-11-26T08:49:20.477Z,296
2016-11-26T08:50:29.794Z,296
2016-11-26T08:51:38.492Z,300
2016-11-26T08:52:47.179Z,308
2016-11-26T08:53:56.488Z,312
2016-11-26T08:55:05.487Z,332
2016-11-26T08:56:14.181Z,344
2016-11-26T08:57:22.863Z,348
2016-11-26T08:58:31.860Z,336
2016-11-26T08:59:40.553Z,332
2016-11-26T09:00:49.551Z,328
2016-11-26T09:01:58.853Z,332
2016-11-26T09:03:08.156Z,328
2016-11-26T09:04:16.849Z,332
2016-11-26T09:05:25.528Z,332
2016-11-26T09:06:34.576Z,344
2016-11-26T09:07:43.882Z,380
2016-11-26T09:08:52.890Z,428
2016-11-26T09:10:01.897Z,452
2016-11-26T09:11:10.750Z,472
2016-11-26T09:12:19.741Z,468
2016-11-26T09:13:29.042Z,468
2016-11-26T09:14:38.051Z,464
2016-11-26T09:15:46.761Z,464
2016-11-26T09:16:56.420Z,452
2016-11-26T09:18:05.736Z,452
2016-11-26T09:19:15.364Z,456
2016-11-26T09:20:24.373Z,456
2016-11-26T09:21:33.687Z,472
2016-11-26T09:22:43.306Z,484
2016-11-26T09:23:53.252Z,484
2016-11-26T09:25:02.241Z,480
2016-11-26T09:26:11.240Z,468
2016-11-26T09:27:20.856Z,464
2016-11-26T09:28:30.181Z,476
2016-11-26T09:29:39.227Z,488
2016-11-26T09:30:48.237Z,500
2016-11-26T09:31:57.001Z,512
2016-11-26T09:33:06.020Z,508
2016-11-26T09:34:15.041Z,508
2016-11-26T09:35:24.080Z,484
2016-11-26T09:36:33.099Z,468
2016-11-26T09:37:42.110Z,452
2016-11-26T09:38:50.907Z,432
2016-11-26T09:40:00.593Z,436
2016-11-26T09:41:09.333Z,464
2016-11-26T09:42:18.026Z,484
2016-11-26T09:43:27.804Z,500
2016-11-26T09:44:36.524Z,532
2016-11-26T09:45:45.875Z,576
2016-11-26T09:46:55.205Z,588
2016-11-26T09:48:04.812Z,604
2016-11-26T09:49:13.811Z,616
2016-11-26T09:50:22.802Z,636
2016-11-26T09:51:32.256Z,636
2016-11-26T09:52:41.867Z,624
2016-11-26T09:53:50.563Z,612
2016-11-26T09:54:59.881Z,584
2016-11-26T09:56:08.580Z,544
2016-11-26T09:57:18.070Z,508
2016-11-26T09:58:27.403Z,504
2016-11-26T09:59:36.713Z,500
2016-11-26T10:00:46.010Z,532
2016-11-26T10:01:55.318Z,536
2016-11-26T10:03:04.423Z,572
2016-11-26T10:04:14.039Z,636
2016-11-26T10:05:23.050Z,656
2016-11-26T10:06:32.045Z,676
2016-11-26T10:07:41.048Z,692
2016-11-26T10:08:50.157Z,692
2016-11-26T10:09:58.866Z,688
2016-11-26T10:11:07.582Z,684
2016-11-26T10:12:16.892Z,688
2016-11-26T10:13:26.207Z,700
2016-11-26T10:14:36.127Z,720
2016-11-26T10:15:44.814Z,740
2016-11-26T10:16:53.522Z,764
2016-11-26T10:18:02.534Z,804
2016-11-26T10:19:11.247Z,812
2016-11-26T10:20:20.549Z,796
2016-11-26T10:21:29.239Z,772
2016-11-26T10:22:37.921Z,768
2016-11-26T10:23:47.526Z,780
2016-11-26T10:24:56.214Z,796
2016-11-26T10:26:05.004Z,804
2016-11-26T10:27:14.007Z,804
2016-11-26T10:28:23.317Z,800
2016-11-26T10:29:32.310Z,804
2016-11-26T10:30:41.300Z,812
2016-11-26T10:31:50.293Z,816
2016-11-26T10:32:59.283Z,840
2016-11-26T10:34:08.642Z,856
2016-11-26T10:35:18.565Z,860
2016-11-26T10:36:27.270Z,852
2016-11-26T10:37:36.722Z,848
2016-11-26T10:38:45.712Z,848
2016-11-26T10:39:55.032Z,840
2016-11-26T10:41:04.028Z,820
2016-11-26T10:42:13.020Z,812
2016-11-26T10:43:22.325Z,816
2016-11-26T10:44:31.321Z,848
2016-11-26T10:45:40.638Z,892
2016-11-26T10:46:49.953Z,920
2016-11-26T10:47:59.571Z,940
2016-11-26T10:49:08.865Z,932
2016-11-26T10:50:17.850Z,892
2016-11-26T10:51:26.851Z,820
2016-11-26T10:52:35.839Z,780
2016-11-26T10:53:45.452Z,792
2016-11-26T10:54:54.450Z,796
2016-11-26T10:56:03.130Z,768
2016-11-26T10:57:12.424Z,768
2016-11-26T10:58:21.414Z,776
2016-11-26T10:59:30.713Z,776
2016-11-26T11:00:40.307Z,784
2016-11-26T11:01:49.612Z,784
2016-11-26T11:02:58.637Z,804
2016-11-26T11:04:07.951Z,824
2016-11-26T11:05:17.015Z,860
2016-11-26T11:06:25.863Z,904
2016-11-26T11:07:34.566Z,940
2016-11-26T11:08:43.269Z,948
2016-11-26T11:09:52.258Z,936
2016-11-26T11:11:00.964Z,924
2016-11-26T11:12:10.931Z,900
2016-11-26T11:13:20.542Z,928
2016-11-26T11:14:29.236Z,996
2016-11-26T11:15:38.254Z,1036
2016-11-26T11:16:47.906Z,1040
2016-11-26T11:17:57.537Z,1044
2016-11-26T11:19:07.177Z,1036
2016-11-26T11:20:16.183Z,1020
2016-11-26T11:21:25.185Z,1004
2016-11-26T11:22:34.178Z,992
2016-11-26T11:23:43.786Z,988
2016-11-26T11:24:52.810Z,992
2016-11-26T11:26:01.809Z,984
2016-11-26T11:27:11.120Z,984
2016-11-26T11:28:20.189Z,1004
2016-11-26T11:29:28.913Z,1024
2016-11-26T11:30:38.003Z,1028
2016-11-26T11:31:47.306Z,1044
2016-11-26T11:32:55.996Z,1028
2016-11-26T11:34:05.328Z,1008
2016-11-26T11:35:14.654Z,1020
2016-11-26T11:36:23.342Z,1032
2016-11-26T11:37:32.385Z,1028
2016-11-26T11:38:41.706Z,1020
2016-11-26T11:39:51.002Z,1008
2016-11-26T11:41:00.348Z,1004
2016-11-26T11:42:09.966Z,1008
2016-11-26T11:43:18.979Z,1016
2016-11-26T11:44:28.289Z,1008
2016-11-26T11:45:36.974Z,980
2016-11-26T11:46:46.083Z,948
2016-11-26T11:47:54.783Z,936
2016-11-26T11:49:04.091Z,920
2016-11-26T11:50:13.707Z,940
2016-11-26T11:51:22.395Z,964
2016-11-26T11:52:31.716Z,960
2016-11-26T11:53:41.347Z,928
2016-11-26T11:54:50.359Z,928
2016-11-26T11:55:59.986Z,956
2016-11-26T11:57:08.898Z,980
2016-11-26T11:58:18.197Z,984
2016-11-26T11:59:27.504Z,952
2016-11-26T12:00:36.212Z,920
2016-11-26T12:01:45.223Z,904
2016-11-26T12:02:53.950Z,916
2016-11-26T12:04:02.659Z,920
2016-11-26T12:05:11.375Z,912
2016-11-26T12:06:20.388Z,904
2016-11-26T12:07:29.703Z,896
2016-11-26T12:08:38.420Z,884
2016-11-26T12:09:47.430Z,880
2016-11-26T12:10:56.762Z,868
2016-11-26T12:12:05.803Z,888
2016-11-26T12:13:14.809Z,900
2016-11-26T12:14:24.125Z,884
2016-11-26T12:15:34.031Z,892
2016-11-26T12:16:43.354Z,896
2016-11-26T12:17:52.678Z,900
2016-11-26T12:19:01.389Z,912
2016-11-26T12:20:10.091Z,904
2016-11-26T12:21:19.566Z,884
2016-11-26T12:22:28.888Z,844
2016-11-26T12:23:37.934Z,824
2016-11-26T12:24:46.966Z,808
2016-11-26T12:25:55.653Z,796
2016-11-26T12:27:04.692Z,764
2016-11-26T12:28:13.392Z,736
2016-11-26T12:29:22.416Z,688
2016-11-26T12:30:31.724Z,648
2016-11-26T12:31:40.725Z,676
2016-11-26T12:32:50.363Z,712
2016-11-26T12:33:59.041Z,724
2016-11-26T12:35:08.359Z,740
2016-11-26T12:36:18.016Z,752
2016-11-26T12:37:27.027Z,744
2016-11-26T12:38:36.724Z,744
2016-11-26T12:39:45.716Z,752
2016-11-26T12:40:54.758Z,748
2016-11-26T12:42:03.464Z,748
2016-11-26T12:43:12.782Z,756
2016-11-26T12:44:21.499Z,760
2016-11-26T12:45:30.495Z,752
2016-11-26T12:46:39.213Z,724
2016-11-26T12:47:47.899Z,656
2016-11-26T12:48:57.209Z,596
2016-11-26T12:50:06.419Z,596
2016-11-26T12:51:16.343Z,620
2016-11-26T12:52:25.048Z,628
2016-11-26T12:53:34.384Z,632
2016-11-26T12:54:43.401Z,652
2016-11-26T12:55:52.255Z,664
2016-11-26T12:57:00.967Z,656
2016-11-26T12:58:10.582Z,628
2016-11-26T12:59:19.634Z,608
2016-11-26T13:00:28.352Z,596
2016-11-26T13:01:38.317Z,588
2016-11-26T13:02:47.020Z,592
2016-11-26T13:03:56.024Z,604
2016-11-26T13:05:04.723Z,620
2016-11-26T13:06:14.055Z,632
2016-11-26T13:07:23.176Z,644
2016-11-26T13:08:32.189Z,660
2016-11-26T13:09:40.898Z,684
2016-11-26T13:10:50.218Z,680
2016-11-26T13:11:59.237Z,684
2016-11-26T13:13:08.929Z,684
2016-11-26T13:14:17.930Z,680
2016-11-26T13:15:27.272Z,684
2016-11-26T13:16:35.981Z,712
2016-11-26T13:17:45.293Z,716
2016-11-26T13:18:54.471Z,724
2016-11-26T13:20:03.469Z,708
2016-11-26T13:21:12.216Z,696
2016-11-26T13:22:20.916Z,696
2016-11-26T13:23:30.227Z,712
2016-11-26T13:24:39.590Z,720
2016-11-26T13:25:48.583Z,724
2016-11-26T13:26:57.592Z,720
2016-11-26T13:28:06.581Z,720
2016-11-26T13:29:16.182Z,712
2016-11-26T13:30:25.473Z,700
2016-11-26T13:31:34.470Z,676
2016-11-26T13:32:43.464Z,668
2016-11-26T13:33:53.085Z,644
2016-11-26T13:35:02.378Z,636
2016-11-26T13:36:11.212Z,620
2016-11-26T13:37:20.553Z,600
2016-11-26T13:38:29.858Z,592
2016-11-26T13:39:38.554Z,588
2016-11-26T13:40:47.545Z,580
2016-11-26T13:41:56.480Z,580
2016-11-26T13:43:05.795Z,564
2016-11-26T13:44:15.120Z,548
2016-11-26T13:45:23.831Z,532
2016-11-26T13:46:33.754Z,508
2016-11-26T13:47:42.736Z,500
2016-11-26T13:48:51.721Z,500
2016-11-26T13:50:00.753Z,504
2016-11-26T13:51:10.412Z,508
2016-11-26T13:52:19.107Z,504
2016-11-26T13:53:28.474Z,508
2016-11-26T13:54:37.152Z,512
2016-11-26T13:55:45.829Z,500
2016-11-26T13:56:54.532Z,480
2016-11-26T13:58:03.826Z,460
2016-11-26T13:59:13.428Z,440
2016-11-26T14:00:23.025Z,424
2016-11-26T14:01:32.009Z,400
2016-11-26T14:02:41.603Z,372
2016-11-26T14:03:50.591Z,360
2016-11-26T14:04:59.422Z,348
2016-11-26T14:06:08.721Z,348
2016-11-26T14:07:18.320Z,340
2016-11-26T14:08:27.308Z,332
2016-11-26T14:09:35.993Z,324
2016-11-26T14:10:44.825Z,320
2016-11-26T14:11:54.119Z,316
2016-11-26T14:13:03.129Z,312
2016-11-26T14:14:12.422Z,308
2016-11-26T14:15:22.022Z,300
2016-11-26T14:16:31.821Z,288
2016-11-26T14:17:40.516Z,276
2016-11-26T14:18:49.506Z,264
2016-11-26T14:19:58.248Z,256
2016-11-26T14:21:07.555Z,252
2016-11-26T14:22:16.545Z,240
2016-11-26T14:23:25.540Z,224
2016-11-26T14:24:34.229Z,212
2016-11-26T14:25:43.226Z,196
2016-11-26T14:26:52.529Z,192
2016-11-26T14:28:01.813Z,188
2016-11-26T14:29:11.418Z,188
2016-11-26T14:30:20.402Z,180
2016-11-26T14:31:29.404Z,172
2016-11-26T14:32:38.116Z,168
2016-11-26T14:33:47.432Z,164
2016-11-26T14:34:56.421Z,164
2016-11-26T14:36:05.105Z,156
2016-11-26T14:37:14.407Z,156
2016-11-26T14:38:23.131Z,156
2016-11-26T14:39:32.115Z,152
2016-11-26T14:40:41.114Z,152
2016-11-26T14:41:50.102Z,152
2016-11-26T14:42:58.829Z,148
2016-11-26T14:44:07.866Z,144
2016-11-26T14:45:17.184Z,136
2016-11-26T14:46:26.171Z,136
2016-11-26T14:47:35.465Z,128
2016-11-26T14:48:44.765Z,132
2016-11-26T14:49:53.750Z,136
2016-11-26T14:51:03.199Z,136
2016-11-26T14:52:12.831Z,140
2016-11-26T14:53:22.130Z,144
2016-11-26T14:54:31.111Z,144
2016-11-26T14:55:40.136Z,148
2016-11-26T14:56:49.584Z,148
2016-11-26T14:57:58.619Z,148
2016-11-26T14:59:07.620Z,144
2016-11-26T15:00:16.641Z,136
2016-11-26T15:01:26.244Z,128
2016-11-26T15:02:35.623Z,124
2016-11-26T15:03:44.957Z,120
2016-11-26T15:04:54.273Z,112
2016-11-26T15:06:03.341Z,108
2016-11-26T15:07:12.048Z,108
2016-11-26T15:08:21.068Z,100
2016-11-26T15:09:30.374Z,92
2016-11-26T15:10:39.090Z,92
2016-11-26T15:11:48.427Z,84
2016-11-26T15:12:57.761Z,80
2016-11-26T15:14:07.369Z,72
2016-11-26T15:15:16.389Z,68
2016-11-26T15:16:25.464Z,64
2016-11-26T15:17:34.795Z,60
2016-11-26T15:18:43.809Z,56
2016-11-26T15:19:53.105Z,52
2016-11-26T15:21:02.107Z,48
2016-11-26T15:22:11.098Z,44
2016-11-26T15:23:20.719Z,40
2016-11-26T15:24:29.412Z,36
2016-11-26T15:25:38.503Z,32
2016-11-26T15:26:47.209Z,28
2016-11-26T15:27:56.205Z,28
2016-11-26T15:29:06.136Z,24
2016-11-26T15:30:14.833Z,24
2016-11-26T15:31:24.609Z,24
2016-11-26T15:32:33.619Z,20
2016-11-26T15:33:42.919Z,24
2016-11-26T15:34:52.235Z,20
2016-11-26T15:36:01.246Z,20
2016-11-26T15:37:10.256Z,16
2016-11-26T15:38:19.268Z,12
2016-11-26T15:39:28.865Z,12
2016-11-26T15:40:37.858Z,12
2016-11-26T15:41:46.558Z,12
2016-11-26T15:42:55.882Z,8
2016-11-26T15:44:04.945Z,8
2016-11-26T15:45:13.945Z,8
2016-11-26T15:46:22.975Z,4
2016-11-26T15:47:31.993Z,4
2016-11-26T15:48:40.996Z,8
2016-11-26T15:49:49.707Z,4
2016-11-26T15:50:58.399Z,4
2016-11-26T15:52:07.424Z,4
2016-11-26T15:53:17.024Z,4
2016-11-26T15:54:26.379Z,4
2016-11-26T15:55:36.680Z,0
2016-11-26T15:56:45.990Z,0
2016-11-26T15:57:55.309Z,4
2016-11-26T15:59:04.616Z,4
2016-11-26T16:00:13.513Z,4
2016-11-26T16:01:22.818Z,4
2016-11-26T16:02:32.132Z,4
2016-11-26T16:03:40.815Z,4
2016-11-26T16:04:49.502Z,4
2016-11-26T16:05:58.830Z,4
2016-11-26T16:07:07.826Z,4
2016-11-26T16:08:17.131Z,4
2016-11-26T16:09:26.148Z,4
2016-11-26T16:10:35.458Z,4
2016-11-26T16:11:44.757Z,4
2016-11-26T16:12:54.073Z,4
2016-11-26T16:14:03.368Z,4
2016-11-26T16:15:12.105Z,4
2016-11-26T16:16:21.103Z,4
2016-11-26T16:17:30.206Z,4
2016-11-26T16:18:38.886Z,4
2016-11-26T16:19:48.215Z,4
2016-11-26T16:20:57.207Z,4
2016-11-26T16:22:06.020Z,4
2016-11-26T16:23:15.191Z,4
2016-11-26T16:24:24.218Z,4
2016-11-26T16:25:33.204Z,4